sensor_id;sensor_type;location;lat;lon;timestamp;pressure;altitude;pressure_sealevel;temperature;humidity
65754;BME280;69207;47.502;18.940;2023-07-30T00:00:12;97746.41;;;19.56;86.79
65754;BME280;69207;47.502;18.940;2023-07-30T00:01:15;97747.00;;;19.52;87.05
65754;BME280;69207;47.502;18.940;2023-07-30T00:02:18;97751.16;;;19.51;87.19
65754;BME280;69207;47.502;18.940;2023-07-30T00:03:21;97755.34;;;19.52;87.43
65754;BME280;69207;47.502;18.940;2023-07-30T00:04:25;97746.25;;;19.49;87.76
65754;BME280;69207;47.502;18.940;2023-07-30T00:05:28;97752.53;;;19.50;87.82
65754;BME280;69207;47.502;18.940;2023-07-30T00:06:31;97758.72;;;19.48;87.66
65754;BME280;69207;47.502;18.940;2023-07-30T00:07:34;97760.09;;;19.47;87.18
65754;BME280;69207;47.502;18.940;2023-07-30T00:08:37;97758.03;;;19.48;87.25
65754;BME280;69207;47.502;18.940;2023-07-30T00:09:40;97755.25;;;19.48;87.02
65754;BME280;69207;47.502;18.940;2023-07-30T00:10:43;97753.28;;;19.52;87.02
65754;BME280;69207;47.502;18.940;2023-07-30T00:11:46;97754.00;;;19.53;86.87
65754;BME280;69207;47.502;18.940;2023-07-30T00:12:49;97757.44;;;19.51;87.12
65754;BME280;69207;47.502;18.940;2023-07-30T00:13:52;97766.56;;;19.54;87.02
65754;BME280;69207;47.502;18.940;2023-07-30T00:14:55;97766.66;;;19.58;86.73
65754;BME280;69207;47.502;18.940;2023-07-30T00:15:58;97755.00;;;19.64;85.84
65754;BME280;69207;47.502;18.940;2023-07-30T00:17:02;97755.53;;;19.58;86.04
65754;BME280;69207;47.502;18.940;2023-07-30T00:18:05;97751.28;;;19.55;86.13
65754;BME280;69207;47.502;18.940;2023-07-30T00:19:08;97754.00;;;19.53;87.09
65754;BME280;69207;47.502;18.940;2023-07-30T00:20:13;97759.56;;;19.53;86.45
65754;BME280;69207;47.502;18.940;2023-07-30T00:21:16;97747.72;;;19.52;86.53
65754;BME280;69207;47.502;18.940;2023-07-30T00:22:19;97754.78;;;19.56;85.99
65754;BME280;69207;47.502;18.940;2023-07-30T00:23:25;97756.34;;;19.61;85.56
65754;BME280;69207;47.502;18.940;2023-07-30T00:24:28;97749.44;;;19.64;84.48
65754;BME280;69207;47.502;18.940;2023-07-30T00:25:31;97751.50;;;19.63;84.70
65754;BME280;69207;47.502;18.940;2023-07-30T00:26:34;97753.63;;;19.65;84.63
65754;BME280;69207;47.502;18.940;2023-07-30T00:27:38;97743.19;;;19.65;84.60
65754;BME280;69207;47.502;18.940;2023-07-30T00:28:42;97743.31;;;19.69;84.61
65754;BME280;69207;47.502;18.940;2023-07-30T00:29:45;97752.50;;;19.74;83.99
65754;BME280;69207;47.502;18.940;2023-07-30T00:30:47;97744.84;;;19.74;84.07
65754;BME280;69207;47.502;18.940;2023-07-30T00:31:50;97746.22;;;19.73;84.35
65754;BME280;69207;47.502;18.940;2023-07-30T00:32:54;97744.91;;;19.76;84.16
65754;BME280;69207;47.502;18.940;2023-07-30T00:33:57;97748.50;;;19.81;83.63
65754;BME280;69207;47.502;18.940;2023-07-30T00:35:00;97756.47;;;19.93;82.40
65754;BME280;69207;47.502;18.940;2023-07-30T00:36:03;97750.31;;;19.96;81.77
65754;BME280;69207;47.502;18.940;2023-07-30T00:37:06;97755.19;;;19.96;81.87
65754;BME280;69207;47.502;18.940;2023-07-30T00:38:09;97745.31;;;19.93;82.28
65754;BME280;69207;47.502;18.940;2023-07-30T00:39:12;97752.97;;;19.92;82.18
65754;BME280;69207;47.502;18.940;2023-07-30T00:40:15;97745.56;;;20.01;81.62
65754;BME280;69207;47.502;18.940;2023-07-30T00:41:18;97736.47;;;20.00;81.62
65754;BME280;69207;47.502;18.940;2023-07-30T00:42:21;97752.44;;;19.98;81.96
65754;BME280;69207;47.502;18.940;2023-07-30T00:43:24;97742.25;;;20.09;81.24
65754;BME280;69207;47.502;18.940;2023-07-30T00:44:27;97735.91;;;20.06;81.59
65754;BME280;69207;47.502;18.940;2023-07-30T00:45:30;97737.94;;;20.03;81.86
65754;BME280;69207;47.502;18.940;2023-07-30T00:46:33;97739.28;;;20.00;82.32
65754;BME280;69207;47.502;18.940;2023-07-30T00:47:37;97731.56;;;19.99;82.59
65754;BME280;69207;47.502;18.940;2023-07-30T00:48:41;97740.62;;;19.99;82.72
65754;BME280;69207;47.502;18.940;2023-07-30T00:49:44;97728.88;;;20.03;82.46
65754;BME280;69207;47.502;18.940;2023-07-30T00:50:47;97731.09;;;20.09;82.07
65754;BME280;69207;47.502;18.940;2023-07-30T00:51:50;97720.72;;;20.11;81.89
65754;BME280;69207;47.502;18.940;2023-07-30T00:52:53;97725.59;;;20.11;82.16
65754;BME280;69207;47.502;18.940;2023-07-30T00:53:56;97725.75;;;20.17;81.60
65754;BME280;69207;47.502;18.940;2023-07-30T00:55:02;97725.09;;;20.20;81.51
65754;BME280;69207;47.502;18.940;2023-07-30T00:56:05;97727.19;;;20.20;81.59
65754;BME280;69207;47.502;18.940;2023-07-30T00:57:09;97729.41;;;20.25;81.18
65754;BME280;69207;47.502;18.940;2023-07-30T00:58:13;97720.91;;;20.19;81.49
65754;BME280;69207;47.502;18.940;2023-07-30T00:59:16;97716.75;;;20.20;81.47
65754;BME280;69207;47.502;18.940;2023-07-30T01:00:19;97720.31;;;20.23;81.61
65754;BME280;69207;47.502;18.940;2023-07-30T01:01:22;97713.66;;;20.36;81.14
65754;BME280;69207;47.502;18.940;2023-07-30T01:02:26;97719.78;;;20.30;81.51
65754;BME280;69207;47.502;18.940;2023-07-30T01:03:30;97715.44;;;20.23;81.98
65754;BME280;69207;47.502;18.940;2023-07-30T01:04:33;97713.25;;;20.20;82.59
65754;BME280;69207;47.502;18.940;2023-07-30T01:05:36;97717.31;;;20.15;82.75
65754;BME280;69207;47.502;18.940;2023-07-30T01:06:39;97715.28;;;20.17;82.57
65754;BME280;69207;47.502;18.940;2023-07-30T01:07:43;97720.91;;;20.19;82.26
65754;BME280;69207;47.502;18.940;2023-07-30T01:08:46;97711.94;;;20.23;82.13
65754;BME280;69207;47.502;18.940;2023-07-30T01:09:49;97719.59;;;20.22;81.99
65754;BME280;69207;47.502;18.940;2023-07-30T01:10:53;97707.78;;;20.24;82.28
65754;BME280;69207;47.502;18.940;2023-07-30T01:11:56;97717.41;;;20.19;82.59
65754;BME280;69207;47.502;18.940;2023-07-30T01:13:01;97712.41;;;20.13;83.07
65754;BME280;69207;47.502;18.940;2023-07-30T01:14:05;97707.81;;;20.26;82.70
65754;BME280;69207;47.502;18.940;2023-07-30T01:15:09;97706.97;;;20.19;82.70
65754;BME280;69207;47.502;18.940;2023-07-30T01:16:13;97708.28;;;20.16;82.89
65754;BME280;69207;47.502;18.940;2023-07-30T01:17:16;97713.09;;;20.14;82.98
65754;BME280;69207;47.502;18.940;2023-07-30T01:18:20;97711.16;;;20.20;82.71
65754;BME280;69207;47.502;18.940;2023-07-30T01:19:23;97706.28;;;20.21;82.28
65754;BME280;69207;47.502;18.940;2023-07-30T01:20:32;97704.19;;;20.19;82.60
65754;BME280;69207;47.502;18.940;2023-07-30T01:21:36;97702.00;;;20.16;82.96
65754;BME280;69207;47.502;18.940;2023-07-30T01:22:40;97696.31;;;20.12;83.30
65754;BME280;69207;47.502;18.940;2023-07-30T01:23:43;97687.91;;;20.10;83.45
65754;BME280;69207;47.502;18.940;2023-07-30T01:24:46;97693.03;;;20.19;82.54
65754;BME280;69207;47.502;18.940;2023-07-30T01:26:02;97692.19;;;20.15;82.73
65754;BME280;69207;47.502;18.940;2023-07-30T01:27:07;97686.13;;;20.22;82.99
65754;BME280;69207;47.502;18.940;2023-07-30T01:28:13;97675.56;;;20.19;83.34
65754;BME280;69207;47.502;18.940;2023-07-30T01:29:42;97671.34;;;20.16;82.73
65754;BME280;69207;47.502;18.940;2023-07-30T01:30:48;97671.41;;;20.20;82.55
65754;BME280;69207;47.502;18.940;2023-07-30T01:31:56;97670.09;;;20.23;82.51
65754;BME280;69207;47.502;18.940;2023-07-30T01:32:59;97665.09;;;20.17;82.60
65754;BME280;69207;47.502;18.940;2023-07-30T01:34:03;97665.66;;;20.12;82.83
65754;BME280;69207;47.502;18.940;2023-07-30T01:35:07;97656.59;;;20.11;82.90
65754;BME280;69207;47.502;18.940;2023-07-30T01:36:15;97657.97;;;20.10;82.94
65754;BME280;69207;47.502;18.940;2023-07-30T01:37:19;97667.66;;;20.09;83.01
65754;BME280;69207;47.502;18.940;2023-07-30T01:38:23;97662.78;;;20.10;82.86
65754;BME280;69207;47.502;18.940;2023-07-30T01:39:27;97665.59;;;20.10;82.89
65754;BME280;69207;47.502;18.940;2023-07-30T01:40:32;97657.84;;;20.06;83.50
65754;BME280;69207;47.502;18.940;2023-07-30T01:41:36;97662.00;;;20.05;83.69
65754;BME280;69207;47.502;18.940;2023-07-30T01:42:39;97660.56;;;20.04;83.75
65754;BME280;69207;47.502;18.940;2023-07-30T01:43:42;97655.06;;;20.06;83.63
65754;BME280;69207;47.502;18.940;2023-07-30T01:44:45;97663.47;;;20.08;83.72
65754;BME280;69207;47.502;18.940;2023-07-30T01:45:48;97659.16;;;20.03;84.02
65754;BME280;69207;47.502;18.940;2023-07-30T01:46:51;97657.62;;;19.98;84.35
65754;BME280;69207;47.502;18.940;2023-07-30T01:47:54;97656.38;;;20.03;84.11
65754;BME280;69207;47.502;18.940;2023-07-30T01:48:57;97655.63;;;20.00;83.89
65754;BME280;69207;47.502;18.940;2023-07-30T01:50:00;97655.47;;;19.94;84.22
65754;BME280;69207;47.502;18.940;2023-07-30T01:51:03;97657.06;;;20.03;83.60
65754;BME280;69207;47.502;18.940;2023-07-30T01:52:06;97666.00;;;19.98;83.55
65754;BME280;69207;47.502;18.940;2023-07-30T01:53:09;97666.63;;;19.94;83.77
65754;BME280;69207;47.502;18.940;2023-07-30T01:54:13;97669.47;;;19.96;83.79
65754;BME280;69207;47.502;18.940;2023-07-30T01:55:16;97666.53;;;19.90;83.93
65754;BME280;69207;47.502;18.940;2023-07-30T01:56:20;97667.81;;;19.87;84.10
65754;BME280;69207;47.502;18.940;2023-07-30T01:57:23;97660.78;;;19.84;83.94
65754;BME280;69207;47.502;18.940;2023-07-30T01:58:25;97658.44;;;19.74;84.74
65754;BME280;69207;47.502;18.940;2023-07-30T01:59:29;97661.41;;;19.81;84.41
65754;BME280;69207;47.502;18.940;2023-07-30T02:00:31;97657.91;;;19.80;84.09
65754;BME280;69207;47.502;18.940;2023-07-30T02:01:34;97650.31;;;19.83;84.02
65754;BME280;69207;47.502;18.940;2023-07-30T02:02:38;97655.16;;;19.82;83.80
65754;BME280;69207;47.502;18.940;2023-07-30T02:03:41;97653.75;;;19.81;83.37
65754;BME280;69207;47.502;18.940;2023-07-30T02:04:44;97664.13;;;19.78;83.45
65754;BME280;69207;47.502;18.940;2023-07-30T02:05:47;97651.66;;;19.82;83.08
65754;BME280;69207;47.502;18.940;2023-07-30T02:06:50;97658.50;;;19.76;83.02
65754;BME280;69207;47.502;18.940;2023-07-30T02:07:53;97664.59;;;19.69;83.61
65754;BME280;69207;47.502;18.940;2023-07-30T02:08:56;97659.72;;;19.69;83.49
65754;BME280;69207;47.502;18.940;2023-07-30T02:09:59;97655.56;;;19.70;83.30
65754;BME280;69207;47.502;18.940;2023-07-30T02:11:02;97657.72;;;19.72;83.05
65754;BME280;69207;47.502;18.940;2023-07-30T02:12:06;97661.25;;;19.74;82.33
65754;BME280;69207;47.502;18.940;2023-07-30T02:13:09;97664.59;;;19.69;82.86
65754;BME280;69207;47.502;18.940;2023-07-30T02:14:12;97661.34;;;19.78;82.45
65754;BME280;69207;47.502;18.940;2023-07-30T02:15:15;97658.97;;;19.67;83.23
65754;BME280;69207;47.502;18.940;2023-07-30T02:16:18;97663.00;;;19.62;83.85
65754;BME280;69207;47.502;18.940;2023-07-30T02:17:21;97660.28;;;19.64;83.63
65754;BME280;69207;47.502;18.940;2023-07-30T02:18:24;97664.31;;;19.59;84.47
65754;BME280;69207;47.502;18.940;2023-07-30T02:19:27;97674.59;;;19.54;85.01
65754;BME280;69207;47.502;18.940;2023-07-30T02:20:30;97661.53;;;19.59;84.70
65754;BME280;69207;47.502;18.940;2023-07-30T02:21:33;97664.94;;;19.57;84.37
65754;BME280;69207;47.502;18.940;2023-07-30T02:22:39;97663.53;;;19.56;84.52
65754;BME280;69207;47.502;18.940;2023-07-30T02:23:42;97657.97;;;19.56;84.43
65754;BME280;69207;47.502;18.940;2023-07-30T02:24:45;97655.88;;;19.57;84.35
65754;BME280;69207;47.502;18.940;2023-07-30T02:25:48;97664.25;;;19.57;84.36
65754;BME280;69207;47.502;18.940;2023-07-30T02:26:51;97659.25;;;19.53;84.15
65754;BME280;69207;47.502;18.940;2023-07-30T02:27:54;97662.94;;;19.60;84.03
65754;BME280;69207;47.502;18.940;2023-07-30T02:28:57;97664.38;;;19.61;83.67
65754;BME280;69207;47.502;18.940;2023-07-30T02:30:03;97660.09;;;19.58;83.68
65754;BME280;69207;47.502;18.940;2023-07-30T02:31:07;97660.09;;;19.58;83.65
65754;BME280;69207;47.502;18.940;2023-07-30T02:32:10;97655.88;;;19.57;83.72
65754;BME280;69207;47.502;18.940;2023-07-30T02:33:13;97659.25;;;19.53;83.90
65754;BME280;69207;47.502;18.940;2023-07-30T02:34:16;97662.75;;;19.53;83.99
65754;BME280;69207;47.502;18.940;2023-07-30T02:35:19;97659.56;;;19.63;83.37
65754;BME280;69207;47.502;18.940;2023-07-30T02:36:23;97669.41;;;19.66;83.01
65754;BME280;69207;47.502;18.940;2023-07-30T02:37:26;97663.00;;;19.62;83.17
65754;BME280;69207;47.502;18.940;2023-07-30T02:38:29;97674.34;;;19.70;81.74
65754;BME280;69207;47.502;18.940;2023-07-30T02:39:32;97668.94;;;19.76;79.82
65754;BME280;69207;47.502;18.940;2023-07-30T02:40:35;97662.06;;;19.79;78.99
65754;BME280;69207;47.502;18.940;2023-07-30T02:41:38;97662.09;;;19.81;79.31
65754;BME280;69207;47.502;18.940;2023-07-30T02:42:42;97663.59;;;19.84;79.20
65754;BME280;69207;47.502;18.940;2023-07-30T02:43:45;97662.22;;;19.85;79.69
65754;BME280;69207;47.502;18.940;2023-07-30T02:44:48;97673.47;;;19.89;79.82
65754;BME280;69207;47.502;18.940;2023-07-30T02:45:51;97670.22;;;19.99;80.21
65754;BME280;69207;47.502;18.940;2023-07-30T02:46:54;97682.94;;;20.06;78.51
65754;BME280;69207;47.502;18.940;2023-07-30T02:47:57;97670.41;;;20.07;77.52
65754;BME280;69207;47.502;18.940;2023-07-30T02:49:00;97673.22;;;20.07;77.72
65754;BME280;69207;47.502;18.940;2023-07-30T02:50:04;97685.88;;;20.12;77.84
65754;BME280;69207;47.502;18.940;2023-07-30T02:51:08;97678.81;;;20.09;77.97
65754;BME280;69207;47.502;18.940;2023-07-30T02:52:11;97680.19;;;20.08;77.94
65754;BME280;69207;47.502;18.940;2023-07-30T02:53:14;97675.31;;;20.09;77.92
65754;BME280;69207;47.502;18.940;2023-07-30T02:54:17;97677.63;;;20.16;77.32
65754;BME280;69207;47.502;18.940;2023-07-30T02:55:23;97675.22;;;20.33;74.64
65754;BME280;69207;47.502;18.940;2023-07-30T02:56:26;97673.78;;;20.31;74.94
65754;BME280;69207;47.502;18.940;2023-07-30T02:57:29;97669.28;;;20.46;73.06
65754;BME280;69207;47.502;18.940;2023-07-30T02:58:32;97663.72;;;20.48;73.23
65754;BME280;69207;47.502;18.940;2023-07-30T02:59:35;97673.47;;;20.47;73.61
65754;BME280;69207;47.502;18.940;2023-07-30T03:00:40;97668.59;;;20.48;74.10
65754;BME280;69207;47.502;18.940;2023-07-30T03:01:43;97678.59;;;20.57;73.05
65754;BME280;69207;47.502;18.940;2023-07-30T03:02:47;97675.81;;;20.59;73.11
65754;BME280;69207;47.502;18.940;2023-07-30T03:03:50;97676.50;;;20.58;73.54
65754;BME280;69207;47.502;18.940;2023-07-30T03:04:53;97686.28;;;20.59;73.41
65754;BME280;69207;47.502;18.940;2023-07-30T03:05:59;97674.47;;;20.60;73.47
65754;BME280;69207;47.502;18.940;2023-07-30T03:07:02;97679.69;;;20.76;71.40
65754;BME280;69207;47.502;18.940;2023-07-30T03:08:05;97666.50;;;20.78;71.24
65754;BME280;69207;47.502;18.940;2023-07-30T03:09:08;97674.81;;;20.76;71.39
65754;BME280;69207;47.502;18.940;2023-07-30T03:10:11;97669.37;;;20.82;70.91
65754;BME280;69207;47.502;18.940;2023-07-30T03:11:14;97661.72;;;20.83;70.92
65754;BME280;69207;47.502;18.940;2023-07-30T03:12:17;97667.28;;;20.83;71.16
65754;BME280;69207;47.502;18.940;2023-07-30T03:13:20;97667.47;;;20.91;71.13
65754;BME280;69207;47.502;18.940;2023-07-30T03:14:24;97670.31;;;20.93;71.45
65754;BME280;69207;47.502;18.940;2023-07-30T03:15:27;97661.16;;;20.91;72.07
65754;BME280;69207;47.502;18.940;2023-07-30T03:16:30;97662.53;;;20.90;72.13
65754;BME280;69207;47.502;18.940;2023-07-30T03:17:33;97665.50;;;20.98;72.29
65754;BME280;69207;47.502;18.940;2023-07-30T03:18:36;97671.63;;;20.90;72.57
65754;BME280;69207;47.502;18.940;2023-07-30T03:19:39;97670.13;;;20.85;72.82
65754;BME280;69207;47.502;18.940;2023-07-30T03:20:42;97672.34;;;20.91;73.21
65754;BME280;69207;47.502;18.940;2023-07-30T03:21:45;97673.63;;;20.86;73.30
65754;BME280;69207;47.502;18.940;2023-07-30T03:22:48;97666.78;;;20.93;73.05
65754;BME280;69207;47.502;18.940;2023-07-30T03:23:51;97672.31;;;20.89;73.08
65754;BME280;69207;47.502;18.940;2023-07-30T03:24:54;97673.69;;;20.88;72.42
65754;BME280;69207;47.502;18.940;2023-07-30T03:25:58;97668.94;;;20.94;72.00
65754;BME280;69207;47.502;18.940;2023-07-30T03:27:03;97678.00;;;20.95;72.41
65754;BME280;69207;47.502;18.940;2023-07-30T03:28:06;97676.59;;;20.94;71.50
65754;BME280;69207;47.502;18.940;2023-07-30T03:29:09;97674.66;;;21.02;71.93
65754;BME280;69207;47.502;18.940;2023-07-30T03:30:12;97672.53;;;20.99;71.61
65754;BME280;69207;47.502;18.940;2023-07-30T03:31:15;97679.59;;;21.04;70.93
65754;BME280;69207;47.502;18.940;2023-07-30T03:32:18;97681.66;;;21.03;71.22
65754;BME280;69207;47.502;18.940;2023-07-30T03:33:21;97688.59;;;21.00;71.54
65754;BME280;69207;47.502;18.940;2023-07-30T03:34:24;97687.84;;;20.98;71.70
65754;BME280;69207;47.502;18.940;2023-07-30T03:35:27;97692.72;;;20.97;72.35
65754;BME280;69207;47.502;18.940;2023-07-30T03:36:30;97689.88;;;20.95;72.99
65754;BME280;69207;47.502;18.940;2023-07-30T03:37:33;97680.12;;;20.96;73.14
65754;BME280;69207;47.502;18.940;2023-07-30T03:38:36;97686.31;;;20.93;73.72
65754;BME280;69207;47.502;18.940;2023-07-30T03:39:39;97679.44;;;20.96;74.32
65754;BME280;69207;47.502;18.940;2023-07-30T03:40:42;97680.75;;;20.93;74.76
65754;BME280;69207;47.502;18.940;2023-07-30T03:41:45;97695.38;;;20.91;74.76
65754;BME280;69207;47.502;18.940;2023-07-30T03:42:49;97692.56;;;20.89;74.89
65754;BME280;69207;47.502;18.940;2023-07-30T03:43:52;97702.34;;;20.90;74.64
65754;BME280;69207;47.502;18.940;2023-07-30T03:44:55;97694.56;;;20.87;74.22
65754;BME280;69207;47.502;18.940;2023-07-30T03:45:58;97701.59;;;20.88;73.95
65754;BME280;69207;47.502;18.940;2023-07-30T03:47:01;97701.72;;;20.94;73.60
65754;BME280;69207;47.502;18.940;2023-07-30T03:48:04;97692.72;;;20.97;73.53
65754;BME280;69207;47.502;18.940;2023-07-30T03:49:07;97691.47;;;21.04;72.19
65754;BME280;69207;47.502;18.940;2023-07-30T03:50:10;97690.09;;;21.05;71.23
65754;BME280;69207;47.502;18.940;2023-07-30T03:51:13;97683.87;;;21.09;71.68
65754;BME280;69207;47.502;18.940;2023-07-30T03:52:16;97692.91;;;21.05;72.81
65754;BME280;69207;47.502;18.940;2023-07-30T03:53:20;97687.44;;;21.12;71.49
65754;BME280;69207;47.502;18.940;2023-07-30T03:54:23;97684.66;;;21.14;70.89
65754;BME280;69207;47.502;18.940;2023-07-30T03:55:26;97686.72;;;21.11;71.70
65754;BME280;69207;47.502;18.940;2023-07-30T03:56:29;97682.47;;;21.08;72.23
65754;BME280;69207;47.502;18.940;2023-07-30T03:57:32;97692.25;;;21.09;71.77
65754;BME280;69207;47.502;18.940;2023-07-30T03:58:35;97692.25;;;21.09;72.13
65754;BME280;69207;47.502;18.940;2023-07-30T03:59:38;97691.09;;;21.20;70.71
65754;BME280;69207;47.502;18.940;2023-07-30T04:00:42;97695.22;;;21.17;71.03
65754;BME280;69207;47.502;18.940;2023-07-30T04:01:45;97692.59;;;21.25;70.86
65754;BME280;69207;47.502;18.940;2023-07-30T04:02:48;97690.00;;;21.33;70.59
65754;BME280;69207;47.502;18.940;2023-07-30T04:03:51;97694.75;;;21.29;71.21
65754;BME280;69207;47.502;18.940;2023-07-30T04:04:55;97698.84;;;21.24;71.53
65754;BME280;69207;47.502;18.940;2023-07-30T04:05:57;97703.75;;;21.25;71.41
65754;BME280;69207;47.502;18.940;2023-07-30T04:07:00;97696.72;;;21.22;71.50
65754;BME280;69207;47.502;18.940;2023-07-30T04:08:03;97699.47;;;21.20;72.09
65754;BME280;69207;47.502;18.940;2023-07-30T04:09:06;97698.16;;;21.23;72.85
65754;BME280;69207;47.502;18.940;2023-07-30T04:10:10;97699.41;;;21.16;73.48
65754;BME280;69207;47.502;18.940;2023-07-30T04:11:13;97697.97;;;21.15;73.58
65754;BME280;69207;47.502;18.940;2023-07-30T04:12:16;97702.09;;;21.12;73.86
65754;BME280;69207;47.502;18.940;2023-07-30T04:13:20;97698.22;;;21.27;71.39
65754;BME280;69207;47.502;18.940;2023-07-30T04:14:23;97696.19;;;21.30;70.36
65754;BME280;69207;47.502;18.940;2023-07-30T04:15:26;97694.13;;;21.30;70.70
65754;BME280;69207;47.502;18.940;2023-07-30T04:16:29;97699.69;;;21.30;71.65
65754;BME280;69207;47.502;18.940;2023-07-30T04:17:32;97702.56;;;21.32;71.26
65754;BME280;69207;47.502;18.940;2023-07-30T04:18:35;97699.03;;;21.32;71.43
65754;BME280;69207;47.502;18.940;2023-07-30T04:19:38;97695.53;;;21.31;71.74
65754;BME280;69207;47.502;18.940;2023-07-30T04:20:41;97704.63;;;21.32;71.74
65754;BME280;69207;47.502;18.940;2023-07-30T04:21:44;97702.00;;;21.40;72.26
65754;BME280;69207;47.502;18.940;2023-07-30T04:22:47;97706.16;;;21.39;72.34
65754;BME280;69207;47.502;18.940;2023-07-30T04:23:50;97707.66;;;21.44;72.43
65754;BME280;69207;47.502;18.940;2023-07-30T04:24:53;97707.66;;;21.44;71.19
65754;BME280;69207;47.502;18.940;2023-07-30T04:25:56;97709.69;;;21.42;71.84
65754;BME280;69207;47.502;18.940;2023-07-30T04:27:00;97704.75;;;21.38;72.46
65754;BME280;69207;47.502;18.940;2023-07-30T04:28:03;97718.06;;;21.40;72.92
65754;BME280;69207;47.502;18.940;2023-07-30T04:29:06;97707.56;;;21.38;73.15
65754;BME280;69207;47.502;18.940;2023-07-30T04:30:10;97710.59;;;21.50;73.08
65754;BME280;69207;47.502;18.940;2023-07-30T04:31:13;97704.44;;;21.58;72.14
65754;BME280;69207;47.502;18.940;2023-07-30T04:32:16;97706.31;;;21.47;72.94
65754;BME280;69207;47.502;18.940;2023-07-30T04:33:19;97706.19;;;21.41;73.66
65754;BME280;69207;47.502;18.940;2023-07-30T04:34:22;97701.31;;;21.42;73.36
65754;BME280;69207;47.502;18.940;2023-07-30T04:35:25;97702.13;;;21.48;72.84
65754;BME280;69207;47.502;18.940;2023-07-30T04:36:28;97709.19;;;21.51;72.10
65754;BME280;69207;47.502;18.940;2023-07-30T04:37:31;97707.19;;;21.56;71.62
65754;BME280;69207;47.502;18.940;2023-07-30T04:38:34;97715.72;;;21.64;70.50
65754;BME280;69207;47.502;18.940;2023-07-30T04:39:37;97709.34;;;21.59;71.16
65754;BME280;69207;47.502;18.940;2023-07-30T04:40:40;97714.87;;;21.55;72.27
65754;BME280;69207;47.502;18.940;2023-07-30T04:41:43;97706.41;;;21.51;72.39
65754;BME280;69207;47.502;18.940;2023-07-30T04:42:46;97709.91;;;21.52;72.51
65754;BME280;69207;47.502;18.940;2023-07-30T04:43:49;97707.09;;;21.52;72.55
65754;BME280;69207;47.502;18.940;2023-07-30T04:44:52;97708.53;;;21.53;72.68
65754;BME280;69207;47.502;18.940;2023-07-30T04:45:55;97709.22;;;21.53;72.83
65754;BME280;69207;47.502;18.940;2023-07-30T04:46:58;97717.00;;;21.57;72.70
65754;BME280;69207;47.502;18.940;2023-07-30T04:48:01;97714.31;;;21.63;71.86
65754;BME280;69207;47.502;18.940;2023-07-30T04:49:04;97710.09;;;21.62;72.55
65754;BME280;69207;47.502;18.940;2023-07-30T04:50:08;97715.69;;;21.62;72.52
65754;BME280;69207;47.502;18.940;2023-07-30T04:51:11;97710.12;;;21.64;71.97
65754;BME280;69207;47.502;18.940;2023-07-30T04:52:14;97706.69;;;21.66;72.08
65754;BME280;69207;47.502;18.940;2023-07-30T04:53:17;97708.28;;;21.77;71.35
65754;BME280;69207;47.502;18.940;2023-07-30T04:54:21;97714.75;;;21.87;70.15
65754;BME280;69207;47.502;18.940;2023-07-30T04:55:24;97707.59;;;21.78;71.03
65754;BME280;69207;47.502;18.940;2023-07-30T04:56:27;97710.34;;;21.76;71.53
65754;BME280;69207;47.502;18.940;2023-07-30T04:57:30;97711.78;;;21.77;71.66
65754;BME280;69207;47.502;18.940;2023-07-30T04:58:33;97709.03;;;21.81;71.51
65754;BME280;69207;47.502;18.940;2023-07-30T04:59:36;97712.53;;;21.80;71.58
65754;BME280;69207;47.502;18.940;2023-07-30T05:00:39;97720.28;;;21.83;71.47
65754;BME280;69207;47.502;18.940;2023-07-30T05:01:42;97718.81;;;21.80;71.83
65754;BME280;69207;47.502;18.940;2023-07-30T05:02:45;97727.22;;;21.80;72.13
65754;BME280;69207;47.502;18.940;2023-07-30T05:03:48;97720.19;;;21.77;72.44
65754;BME280;69207;47.502;18.940;2023-07-30T05:04:51;97724.41;;;21.80;72.27
65754;BME280;69207;47.502;18.940;2023-07-30T05:05:54;97727.88;;;21.79;72.62
65754;BME280;69207;47.502;18.940;2023-07-30T05:06:57;97728.59;;;21.79;72.60
65754;BME280;69207;47.502;18.940;2023-07-30T05:08:00;97725.78;;;21.77;73.19
65754;BME280;69207;47.502;18.940;2023-07-30T05:09:03;97721.59;;;21.78;73.34
65754;BME280;69207;47.502;18.940;2023-07-30T05:10:06;97729.97;;;21.78;74.22
65754;BME280;69207;47.502;18.940;2023-07-30T05:11:12;97725.72;;;21.75;75.54
65754;BME280;69207;47.502;18.940;2023-07-30T05:12:15;97729.87;;;21.74;75.54
65754;BME280;69207;47.502;18.940;2023-07-30T05:13:18;97725.69;;;21.73;75.87
65754;BME280;69207;47.502;18.940;2023-07-30T05:14:21;97729.87;;;21.72;76.22
65754;BME280;69207;47.502;18.940;2023-07-30T05:15:25;97720.78;;;21.72;75.89
65754;BME280;69207;47.502;18.940;2023-07-30T05:16:28;97722.84;;;21.71;75.98
65754;BME280;69207;47.502;18.940;2023-07-30T05:17:31;97727.91;;;21.81;74.18
65754;BME280;69207;47.502;18.940;2023-07-30T05:18:34;97720.22;;;21.81;73.97
65754;BME280;69207;47.502;18.940;2023-07-30T05:19:40;97735.50;;;21.76;74.51
65754;BME280;69207;47.502;18.940;2023-07-30T05:20:46;97732.69;;;21.74;74.55
65754;BME280;69207;47.502;18.940;2023-07-30T05:21:48;97729.31;;;21.82;73.67
65754;BME280;69207;47.502;18.940;2023-07-30T05:22:52;97732.84;;;21.82;73.38
65754;BME280;69207;47.502;18.940;2023-07-30T05:23:54;97730.75;;;21.83;73.61
65754;BME280;69207;47.502;18.940;2023-07-30T05:24:57;97727.22;;;21.80;74.52
65754;BME280;69207;47.502;18.940;2023-07-30T05:26:00;97724.50;;;21.84;74.12
65754;BME280;69207;47.502;18.940;2023-07-30T05:27:04;97726.59;;;21.86;73.49
65754;BME280;69207;47.502;18.940;2023-07-30T05:28:07;97721.72;;;21.86;73.44
65754;BME280;69207;47.502;18.940;2023-07-30T05:29:10;97721.72;;;21.86;74.08
65754;BME280;69207;47.502;18.940;2023-07-30T05:30:13;97721.72;;;21.86;74.57
65754;BME280;69207;47.502;18.940;2023-07-30T05:31:16;97730.88;;;21.89;74.32